This is the latest recevied weather packets stored in our database for station/object K6QM-1. If no packets are shown the sender has not sent any weather packets the latest 10 day(s).
| Time | Temp. | Humidity | Pressure | Rain* | Wind** | Luminosity | Snow |
|---|---|---|---|---|---|---|---|
| 1777193680 | 15° C | 70% | 1014.7 hPa | - | - | - | - |
| 1777192779 | 15° C | 73% | 1014.8 hPa | - | - | - | - |
| 1777191879 | 15.56° C | 71% | 1015 hPa | - | - | - | - |
| 1777190979 | 16.11° C | 64% | 1014.9 hPa | - | - | - | - |
| 1777190080 | 16.11° C | 65% | 1015.1 hPa | - | - | - | - |
| 1777189179 | 16.11° C | 65% | 1015.3 hPa | - | - | - | - |
| 1777188280 | 16.11° C | 65% | 1015.3 hPa | - | - | - | - |
| 1777187379 | 16.11° C | 64% | 1015.4 hPa | - | - | - | - |
| 1777186479 | 16.11° C | 65% | 1015.4 hPa | - | - | - | - |
| 1777185579 | 16.11° C | 66% | 1015.4 hPa | - | - | - | - |
| 1777184679 | 16.11° C | 65% | 1015.4 hPa | - | - | - | - |
| 1777183779 | 16.11° C | 68% | 1015.3 hPa | - | - | - | - |
| 1777182879 | 16.11° C | 67% | 1015.1 hPa | - | - | - | - |
| 1777181979 | 16.67° C | 58% | 1015.1 hPa | - | - | - | - |
| 1777181078 | 16.67° C | 58% | 1015.3 hPa | - | - | - | - |
| 1777180178 | 16.67° C | 57% | 1015.4 hPa | - | - | - | - |
| 1777179279 | 17.22° C | 57% | 1015.3 hPa | - | - | - | - |
| 1777178378 | 17.22° C | 56% | 1015.3 hPa | - | - | - | - |
| 1777177478 | 15° C | 56% | 1011.6 hPa | - | - | - | - |
| 1777176578 | 16.67° C | 57% | 1015.3 hPa | - | - | - | - |
| 1777175679 | 17.22° C | 55% | 1015.2 hPa | - | - | - | - |
| 1777173878 | 17.22° C | 54% | 1015.2 hPa | - | - | - | - |
| 1777172978 | 17.22° C | 56% | 1015.1 hPa | - | - | - | - |
| 1777172078 | 17.22° C | 56% | 1015 hPa | - | - | - | - |
| 1777171178 | 17.22° C | 55% | 1014.7 hPa | - | - | - | - |
* Rain since midnight (hover to see other rain measurements)
** Current wind speed in m/s (hover to see current wind gust speed)